GCLP/LPA METAR and TAF weather

Enter ICAO airport designator
Station Type Date Time Source
GCLP METAR 2022/11/30 17:00 UTC NOAA

GCLP 301700Z 02017KT 350V050 9999 SCT035 22/13 Q1016 NOSIG


Station Type Date Time Source
GCLP Decoded METAR 2022/11/30 17:00 UTC NOAA

Gran Canaria - Canary Islands, Spain (GCLP) 27-56N 015-23W 47M
Nov 30, 2022 - 12:00 PM EST / 2022.11.30 1700 UTC
Wind: from the NNE (020 degrees) at 20 MPH (17 KT) (direction variable):0
Visibility: greater than 7 mile(s):0
Sky conditions: partly cloudy
Temperature: 71 F (22 C)
Dew Point: 55 F (13 C)
Relative Humidity: 56%
Pressure (altimeter): 30.00 in. Hg (1016 hPa)
ob: GCLP 301700Z 02017KT 350V050 9999 SCT035 22/13 Q1016 NOSIG
cycle: 17

Station Type Date Time Source
GCLP TAF 2022/11/30 15:42 UTC NOAA

TAF GCLP 301400Z 3015/0115 02015KT 9999 SCT030 TX23/0114Z TN17/0106Z

Example: see airport list